createdAt,value
2018-04-13T00:00:26.686Z,13.47
2018-04-13T00:01:30.939Z,13.38
2018-04-13T00:02:35.152Z,13.26
2018-04-13T00:03:39.279Z,13.21
2018-04-13T00:04:44.442Z,13.31
2018-04-13T00:05:48.705Z,13.48
2018-04-13T00:06:52.827Z,13.55
2018-04-13T00:07:57.059Z,13.68
2018-04-13T00:09:01.175Z,13.70
2018-04-13T00:10:05.583Z,13.67
2018-04-13T00:11:10.034Z,13.64
2018-04-13T00:12:14.949Z,13.57
2018-04-13T00:13:19.079Z,13.48
2018-04-13T00:14:23.180Z,13.37
2018-04-13T00:15:28.058Z,13.19
2018-04-13T00:16:33.134Z,13.03
2018-04-13T00:17:37.258Z,12.92
2018-04-13T00:18:41.731Z,12.82
2018-04-13T00:19:45.856Z,12.77
2018-04-13T00:20:50.085Z,12.70
2018-04-13T00:21:54.251Z,12.61
2018-04-13T00:22:58.707Z,12.56
2018-04-13T00:24:03.342Z,12.57
2018-04-13T00:25:07.961Z,12.52
2018-04-13T00:26:12.118Z,12.37
2018-04-13T00:27:16.965Z,12.37
2018-04-13T00:28:21.077Z,12.33
2018-04-13T00:29:25.489Z,12.19
2018-04-13T00:30:29.936Z,12.13
2018-04-13T00:31:34.053Z,12.18
2018-04-13T00:32:38.373Z,12.29
2018-04-13T00:33:42.555Z,12.41
2018-04-13T00:34:46.659Z,12.45
2018-04-13T00:35:51.086Z,12.57
2018-04-13T00:36:55.191Z,12.68
2018-04-13T00:37:59.406Z,12.76
2018-04-13T00:39:03.738Z,12.98
2018-04-13T00:40:08.145Z,13.19
2018-04-13T00:41:12.347Z,13.30
2018-04-13T00:42:17.043Z,13.37
2018-04-13T00:43:21.240Z,13.42
2018-04-13T00:44:25.414Z,13.46
2018-04-13T00:45:29.721Z,13.43
2018-04-13T00:46:33.859Z,13.51
2018-04-13T00:47:38.593Z,13.62
2018-04-13T00:48:43.579Z,13.66
2018-04-13T00:49:47.739Z,13.63
2018-04-13T00:50:51.903Z,13.51
2018-04-13T00:51:56.007Z,13.40
2018-04-13T00:53:08.829Z,13.32
2018-04-13T00:54:13.709Z,13.30
2018-04-13T00:55:18.239Z,13.33
2018-04-13T00:56:22.391Z,13.43
2018-04-13T00:57:26.497Z,13.51
2018-04-13T00:58:30.714Z,13.61
2018-04-13T00:59:34.929Z,13.77
2018-04-13T01:00:39.677Z,13.78
2018-04-13T01:01:44.194Z,13.78
2018-04-13T01:02:48.436Z,13.70
2018-04-13T01:03:52.971Z,13.61
2018-04-13T01:04:57.399Z,13.47
2018-04-13T01:06:01.554Z,13.44
2018-04-13T01:07:06.035Z,13.50
2018-04-13T01:08:10.819Z,13.57
2018-04-13T01:09:15.859Z,13.65
2018-04-13T01:10:20.201Z,13.67
2018-04-13T01:11:24.700Z,13.70
2018-04-13T01:12:29.413Z,13.72
2018-04-13T01:13:33.839Z,13.71
2018-04-13T01:14:38.693Z,13.63
2018-04-13T01:15:43.075Z,13.56
2018-04-13T01:16:47.172Z,13.55
2018-04-13T01:17:51.334Z,13.60
2018-04-13T01:18:55.423Z,13.66
2018-04-13T01:19:59.582Z,13.61
2018-04-13T01:21:03.702Z,13.55
2018-04-13T01:22:07.804Z,13.47
2018-04-13T01:23:11.974Z,13.41
2018-04-13T01:24:17.150Z,13.39
2018-04-13T01:25:21.597Z,13.36
2018-04-13T01:26:26.015Z,13.35
2018-04-13T01:27:30.272Z,13.40
2018-04-13T01:28:34.404Z,13.42
2018-04-13T01:29:38.600Z,13.48
2018-04-13T01:30:43.143Z,13.59
2018-04-13T01:31:47.285Z,13.58
2018-04-13T01:32:52.035Z,13.57
2018-04-13T01:33:56.185Z,13.57
2018-04-13T01:35:00.879Z,13.50
2018-04-13T01:36:05.037Z,13.42
2018-04-13T01:37:09.134Z,13.37
2018-04-13T01:38:13.873Z,13.33
2018-04-13T01:39:18.948Z,13.30
2018-04-13T01:40:23.347Z,13.29
2018-04-13T01:41:27.945Z,13.28
2018-04-13T01:42:32.043Z,13.30
2018-04-13T01:43:36.607Z,13.36
2018-04-13T01:44:40.962Z,13.50
2018-04-13T01:45:45.355Z,13.56
2018-04-13T01:46:50.336Z,13.57
2018-04-13T01:47:54.923Z,13.57
2018-04-13T01:48:59.582Z,13.53
2018-04-13T01:50:04.097Z,13.57
2018-04-13T01:51:08.662Z,13.54
2018-04-13T01:52:13.194Z,13.47
2018-04-13T01:53:18.084Z,13.42
2018-04-13T01:54:22.368Z,13.38
2018-04-13T01:55:26.486Z,13.44
2018-04-13T01:56:30.612Z,13.46
2018-04-13T01:57:35.069Z,13.49
2018-04-13T01:58:39.228Z,13.48
2018-04-13T01:59:43.435Z,13.50
2018-04-13T02:00:48.265Z,13.56
2018-04-13T02:01:52.348Z,13.62
2018-04-13T02:02:56.551Z,13.63
2018-04-13T02:04:01.019Z,13.65
2018-04-13T02:05:05.266Z,13.66
2018-04-13T02:06:09.728Z,13.56
2018-04-13T02:07:14.141Z,13.46
2018-04-13T02:08:19.256Z,13.38
2018-04-13T02:09:23.469Z,13.39
2018-04-13T02:10:27.929Z,13.43
2018-04-13T02:11:32.357Z,13.54
2018-04-13T02:12:37.241Z,13.58
2018-04-13T02:13:41.453Z,13.57
2018-04-13T02:14:47.241Z,13.61
2018-04-13T02:15:51.625Z,13.65
2018-04-13T02:16:56.091Z,13.62
2018-04-13T02:18:00.381Z,13.65
2018-04-13T02:19:04.601Z,13.69
2018-04-13T02:20:08.718Z,13.70
2018-04-13T02:21:12.863Z,13.65
2018-04-13T02:22:17.857Z,13.61
2018-04-13T02:23:22.389Z,13.64
2018-04-13T02:24:26.566Z,13.63
2018-04-13T02:25:30.751Z,13.58
2018-04-13T02:26:34.899Z,13.45
2018-04-13T02:27:39.014Z,13.39
2018-04-13T02:28:43.234Z,13.36
2018-04-13T02:29:47.370Z,13.41
2018-04-13T02:30:51.851Z,13.29
2018-04-13T02:31:55.973Z,13.16
2018-04-13T02:33:00.498Z,13.15
2018-04-13T02:34:04.628Z,13.10
2018-04-13T02:35:09.094Z,12.99
2018-04-13T02:36:14.084Z,13.05
2018-04-13T02:37:19.139Z,13.06
2018-04-13T02:38:23.504Z,12.91
2018-04-13T02:39:27.737Z,12.72
2018-04-13T02:40:31.856Z,12.52
2018-04-13T02:41:36.090Z,12.40
2018-04-13T02:42:40.211Z,12.43
2018-04-13T02:43:44.354Z,12.46
2018-04-13T02:44:48.606Z,12.51
2018-04-13T02:45:53.055Z,12.55
2018-04-13T02:46:57.431Z,12.63
2018-04-13T02:48:01.742Z,12.76
2018-04-13T02:49:06.059Z,12.84
2018-04-13T02:50:10.152Z,12.80
2018-04-13T02:51:14.266Z,12.74
2018-04-13T02:52:18.641Z,12.72
2018-04-13T02:53:23.084Z,12.72
2018-04-13T02:54:27.216Z,12.66
2018-04-13T02:55:31.332Z,12.60
2018-04-13T02:56:35.866Z,12.42
2018-04-13T02:57:40.061Z,12.32
2018-04-13T02:58:45.221Z,12.37
2018-04-13T02:59:49.635Z,12.46
2018-04-13T03:00:53.971Z,12.50
2018-04-13T03:01:58.085Z,12.51
2018-04-13T03:03:02.321Z,12.53
2018-04-13T03:04:06.444Z,12.58
2018-04-13T03:05:10.551Z,12.65
2018-04-13T03:06:15.265Z,12.61
2018-04-13T03:07:19.489Z,12.64
2018-04-13T03:08:23.627Z,12.64
2018-04-13T03:09:27.737Z,12.60
2018-04-13T03:10:31.841Z,12.61
2018-04-13T03:11:36.114Z,12.73
2018-04-13T03:12:40.627Z,12.81
2018-04-13T03:13:45.000Z,12.94
2018-04-13T03:14:49.209Z,12.98
2018-04-13T03:15:53.617Z,12.86
2018-04-13T03:16:57.727Z,12.77
2018-04-13T03:18:01.926Z,12.79
2018-04-13T03:19:06.998Z,12.78
2018-04-13T03:20:11.116Z,12.72
2018-04-13T03:21:16.360Z,12.66
2018-04-13T03:22:20.560Z,12.68
2018-04-13T03:23:24.678Z,12.71
2018-04-13T03:24:28.794Z,12.78
2018-04-13T03:25:33.309Z,12.78
2018-04-13T03:26:37.422Z,12.75
2018-04-13T03:27:41.550Z,12.61
2018-04-13T03:28:45.684Z,12.47
2018-04-13T03:29:49.801Z,12.46
2018-04-13T03:30:54.451Z,12.40
2018-04-13T03:31:58.910Z,12.36
2018-04-13T03:33:03.036Z,12.28
2018-04-13T03:34:07.164Z,12.25
2018-04-13T03:35:11.289Z,12.18
2018-04-13T03:36:15.485Z,12.12
2018-04-13T03:37:20.401Z,12.11
2018-04-13T03:38:24.517Z,12.17
2018-04-13T03:39:28.625Z,12.20
2018-04-13T03:40:32.741Z,12.17
2018-04-13T03:41:37.045Z,12.14
2018-04-13T03:42:41.204Z,12.11
2018-04-13T03:43:45.309Z,12.09
2018-04-13T03:44:50.732Z,12.03
2018-04-13T03:45:55.095Z,12.04
2018-04-13T03:46:59.253Z,12.03
2018-04-13T03:48:03.390Z,12.05
2018-04-13T03:49:07.568Z,12.09
2018-04-13T03:50:11.678Z,12.10
2018-04-13T03:51:15.794Z,12.07
2018-04-13T03:52:19.923Z,12.08
2018-04-13T03:53:24.523Z,12.09
2018-04-13T03:54:29.159Z,12.12
2018-04-13T03:55:33.338Z,12.13
2018-04-13T03:56:37.864Z,12.11
2018-04-13T03:57:42.008Z,12.17
2018-04-13T03:58:46.610Z,12.24
2018-04-13T03:59:51.233Z,12.26
2018-04-13T04:00:55.837Z,12.29
2018-04-13T04:02:00.250Z,12.25
2018-04-13T04:03:04.645Z,12.18
2018-04-13T04:04:08.869Z,12.19
2018-04-13T04:05:12.995Z,12.23
2018-04-13T04:06:17.247Z,12.30
2018-04-13T04:07:21.383Z,12.36
2018-04-13T04:08:25.524Z,12.42
2018-04-13T04:09:29.939Z,12.47
2018-04-13T04:10:34.072Z,12.48
2018-04-13T04:11:38.514Z,12.48
2018-04-13T04:12:42.715Z,12.47
2018-04-13T04:13:46.925Z,12.43
2018-04-13T04:14:52.730Z,12.43
2018-04-13T04:15:57.344Z,12.43
2018-04-13T04:17:01.523Z,12.40
2018-04-13T04:18:05.676Z,12.34
2018-04-13T04:19:09.784Z,12.38
2018-04-13T04:20:25.036Z,12.47
2018-04-13T04:21:40.051Z,12.55
2018-04-13T04:25:00.764Z,12.52
2018-04-13T04:27:09.754Z,12.49
2018-04-13T04:28:13.888Z,12.45
2018-04-13T04:29:19.008Z,12.47
2018-04-13T04:30:23.630Z,12.40
2018-04-13T04:31:27.738Z,12.12
2018-04-13T04:32:32.185Z,11.91
2018-04-13T04:33:36.415Z,11.74
2018-04-13T04:34:40.569Z,11.62
2018-04-13T04:35:44.706Z,11.53
2018-04-13T04:36:48.856Z,11.48
2018-04-13T04:37:53.064Z,11.44
2018-04-13T04:38:58.132Z,11.44
2018-04-13T04:40:02.357Z,11.47
2018-04-13T04:41:06.511Z,11.55
2018-04-13T04:42:10.644Z,11.65
2018-04-13T04:43:14.795Z,11.76
2018-04-13T04:44:19.814Z,11.86
2018-04-13T04:45:24.438Z,11.93
2018-04-13T04:46:28.560Z,11.98
2018-04-13T04:47:32.648Z,12.02
2018-04-13T04:48:36.846Z,12.11
2018-04-13T04:49:40.989Z,12.17
2018-04-13T04:50:45.628Z,12.27
2018-04-13T04:51:49.777Z,12.31
2018-04-13T04:52:54.967Z,12.28
2018-04-13T04:53:59.133Z,12.36
2018-04-13T04:55:03.274Z,12.45
2018-04-13T04:56:07.432Z,12.41
2018-04-13T04:57:11.540Z,12.34
2018-04-13T04:58:15.832Z,12.26
2018-04-13T04:59:20.881Z,12.25
2018-04-13T05:00:25.274Z,12.30
2018-04-13T05:01:29.526Z,12.34
2018-04-13T05:02:34.007Z,12.35
2018-04-13T05:03:38.216Z,12.40
2018-04-13T05:04:42.340Z,12.34
2018-04-13T05:05:46.502Z,12.26
2018-04-13T05:06:50.645Z,12.22
2018-04-13T05:07:55.558Z,12.19
2018-04-13T05:09:00.042Z,12.13
2018-04-13T05:10:04.284Z,12.18
2018-04-13T05:11:08.416Z,12.27
2018-04-13T05:12:12.630Z,12.34
2018-04-13T05:13:17.396Z,12.35
2018-04-13T05:14:22.159Z,12.24
2018-04-13T05:15:26.698Z,12.25
2018-04-13T05:16:30.815Z,12.22
2018-04-13T05:17:34.933Z,12.20
2018-04-13T05:18:39.137Z,12.20
2018-04-13T05:19:43.304Z,12.19
2018-04-13T05:20:47.821Z,12.18
2018-04-13T05:21:51.939Z,12.17
2018-04-13T05:22:56.112Z,12.14
2018-04-13T05:24:01.292Z,12.16
2018-04-13T05:25:05.414Z,12.11
2018-04-13T05:26:09.525Z,12.14
2018-04-13T05:27:13.957Z,12.18
2018-04-13T05:28:18.234Z,12.23
2018-04-13T05:29:22.376Z,12.32
2018-04-13T05:30:26.709Z,12.38
2018-04-13T05:31:30.823Z,12.40
2018-04-13T05:32:35.559Z,12.44
2018-04-13T05:33:39.781Z,12.40
2018-04-13T05:34:44.351Z,12.39
2018-04-13T05:35:48.577Z,12.41
2018-04-13T05:36:52.729Z,12.42
2018-04-13T05:37:56.933Z,12.37
2018-04-13T05:39:02.264Z,12.35
2018-04-13T05:40:06.444Z,12.27
2018-04-13T05:41:10.590Z,12.17
2018-04-13T05:42:14.767Z,12.11
2018-04-13T05:43:19.127Z,12.16
2018-04-13T05:44:23.322Z,12.19
2018-04-13T05:45:27.719Z,12.20
2018-04-13T05:46:31.828Z,12.19
2018-04-13T05:47:35.957Z,12.14
2018-04-13T05:48:40.066Z,12.20
2018-04-13T05:49:44.264Z,12.23
2018-04-13T05:50:48.765Z,12.25
2018-04-13T05:51:53.016Z,12.33
2018-04-13T05:52:57.176Z,12.38
2018-04-13T05:54:02.258Z,12.41
2018-04-13T05:55:06.464Z,12.54
2018-04-13T05:56:10.608Z,12.66
2018-04-13T05:57:15.169Z,12.73
2018-04-13T05:58:19.272Z,12.77
2018-04-13T05:59:23.378Z,12.80
2018-04-13T06:00:27.828Z,12.78
2018-04-13T06:01:31.990Z,12.70
2018-04-13T06:02:36.188Z,12.60
2018-04-13T06:03:40.654Z,12.54
2018-04-13T06:04:45.096Z,12.51
2018-04-13T06:05:49.284Z,12.52
2018-04-13T06:06:53.534Z,12.54
2018-04-13T06:07:57.669Z,12.54
2018-04-13T06:09:03.282Z,12.57
2018-04-13T06:10:07.409Z,12.68
2018-04-13T06:11:11.576Z,12.75
2018-04-13T06:12:15.728Z,12.87
2018-04-13T06:13:20.765Z,12.92
2018-04-13T06:14:24.886Z,12.96
2018-04-13T06:15:29.255Z,13.03
2018-04-13T06:16:33.408Z,13.07
2018-04-13T06:17:37.638Z,13.08
2018-04-13T06:18:41.779Z,13.03
2018-04-13T06:19:45.902Z,12.90
2018-04-13T06:20:50.566Z,12.86
2018-04-13T06:21:54.693Z,12.94
2018-04-13T06:22:58.874Z,13.08
2018-04-13T06:24:03.860Z,13.10
2018-04-13T06:25:08.054Z,13.17
2018-04-13T06:26:12.256Z,13.26
2018-04-13T06:27:17.653Z,13.31
2018-04-13T06:28:21.770Z,13.41
2018-04-13T06:29:25.905Z,13.50
2018-04-13T06:30:30.384Z,13.39
2018-04-13T06:31:34.534Z,13.31
2018-04-13T06:32:38.652Z,13.26
2018-04-13T06:33:43.294Z,13.16
2018-04-13T06:34:47.468Z,13.25
2018-04-13T06:35:51.654Z,13.33
2018-04-13T06:36:55.974Z,13.39
2018-04-13T06:38:00.097Z,13.45
2018-04-13T06:39:04.478Z,13.51
2018-04-13T06:40:08.637Z,13.39
2018-04-13T06:41:12.841Z,13.35
2018-04-13T06:42:17.102Z,13.31
2018-04-13T06:43:22.064Z,13.30
2018-04-13T06:44:26.274Z,13.40
2018-04-13T06:45:30.920Z,13.35
2018-04-13T06:46:35.134Z,13.42
2018-04-13T06:47:39.317Z,13.38
2018-04-13T06:48:43.438Z,13.36
2018-04-13T06:49:47.627Z,13.32
2018-04-13T06:50:51.949Z,13.36
2018-04-13T06:51:56.443Z,13.31
2018-04-13T06:53:01.571Z,13.39
2018-04-13T06:54:05.789Z,13.44
2018-04-13T06:55:09.961Z,13.53
2018-04-13T06:56:14.116Z,13.55
2018-04-13T06:57:18.311Z,13.62
2018-04-13T06:58:23.357Z,13.69
2018-04-13T06:59:27.510Z,13.64
2018-04-13T07:00:31.953Z,13.63
2018-04-13T07:01:36.756Z,13.66
2018-04-13T07:02:41.038Z,13.70
2018-04-13T07:03:45.190Z,13.69
2018-04-13T07:04:49.674Z,13.54
2018-04-13T07:05:53.822Z,13.52
2018-04-13T07:06:58.134Z,13.46
2018-04-13T07:08:02.390Z,13.51
2018-04-13T07:09:07.148Z,13.59
2018-04-13T07:10:11.354Z,13.75
2018-04-13T07:11:15.788Z,13.87
2018-04-13T07:12:20.800Z,14.03
2018-04-13T07:13:25.170Z,14.00
2018-04-13T07:14:29.570Z,13.91
2018-04-13T07:15:34.142Z,13.86
2018-04-13T07:16:38.616Z,13.85
2018-04-13T07:17:42.728Z,13.98
2018-04-13T07:18:46.956Z,14.04
2018-04-13T07:19:51.338Z,14.10
2018-04-13T07:20:55.654Z,14.17
2018-04-13T07:22:00.040Z,14.22
2018-04-13T07:23:04.557Z,14.21
2018-04-13T07:24:08.718Z,14.18
2018-04-13T07:25:13.016Z,14.30
2018-04-13T07:26:17.286Z,14.42
2018-04-13T07:27:21.558Z,14.54
2018-04-13T07:28:25.668Z,14.53
2018-04-13T07:29:30.265Z,14.71
2018-04-13T07:30:34.554Z,14.65
2018-04-13T07:31:38.700Z,14.48
2018-04-13T07:32:42.872Z,14.34
2018-04-13T07:33:47.024Z,14.37
2018-04-13T07:34:51.110Z,14.55
2018-04-13T07:35:55.596Z,14.68
2018-04-13T07:37:00.167Z,14.83
2018-04-13T07:38:03.904Z,15.04
2018-04-13T07:39:08.126Z,15.22
2018-04-13T07:40:12.368Z,15.38
2018-04-13T07:41:16.561Z,15.53
2018-04-13T07:42:21.003Z,15.80
2018-04-13T07:43:25.659Z,15.94
2018-04-13T07:44:29.774Z,15.98
2018-04-13T07:45:34.356Z,16.10
2018-04-13T07:46:39.192Z,16.15
2018-04-13T07:47:43.332Z,16.29
2018-04-13T07:48:47.521Z,16.46
2018-04-13T07:49:51.709Z,16.65
2018-04-13T07:50:56.402Z,16.71
2018-04-13T07:52:00.181Z,16.71
2018-04-13T07:53:04.368Z,16.71
2018-04-13T07:54:08.853Z,16.94
2018-04-13T07:55:12.988Z,17.23
2018-04-13T07:56:17.441Z,17.49
2018-04-13T07:57:21.661Z,17.66
2018-04-13T07:58:27.369Z,17.74
2018-04-13T07:59:31.816Z,17.91
2018-04-13T08:00:35.921Z,18.13
2018-04-13T08:01:40.602Z,18.20
2018-04-13T08:02:44.329Z,18.24
2018-04-13T08:03:48.485Z,18.18
2018-04-13T08:04:52.610Z,18.19
2018-04-13T08:05:57.146Z,17.98
2018-04-13T08:07:01.346Z,17.75
2018-04-13T08:08:05.475Z,17.80
2018-04-13T08:09:09.661Z,17.74
2018-04-13T08:10:14.327Z,17.79
2018-04-13T08:11:18.037Z,17.80
2018-04-13T08:12:22.807Z,17.83
2018-04-13T08:13:27.381Z,18.15
2018-04-13T08:14:31.527Z,18.42
2018-04-13T08:15:35.999Z,18.68
2018-04-13T08:16:40.153Z,18.88
2018-04-13T08:17:44.370Z,19.05
2018-04-13T08:18:48.905Z,19.19
2018-04-13T08:19:53.061Z,19.29
2018-04-13T08:20:57.205Z,19.28
2018-04-13T08:22:01.308Z,19.29
2018-04-13T08:23:05.663Z,19.49
2018-04-13T08:24:09.847Z,19.59
2018-04-13T08:25:14.096Z,19.54
2018-04-13T08:26:18.352Z,19.54
2018-04-13T08:27:22.506Z,19.53
2018-04-13T08:28:26.806Z,19.57
2018-04-13T08:29:30.909Z,19.41
2018-04-13T08:30:35.652Z,19.17
2018-04-13T08:31:40.109Z,19.22
2018-04-13T08:32:45.085Z,19.25
2018-04-13T08:33:49.285Z,19.45
2018-04-13T08:34:53.456Z,19.77
2018-04-13T08:35:57.682Z,19.86
2018-04-13T08:37:01.863Z,19.90
2018-04-13T08:38:06.031Z,19.89
2018-04-13T08:39:10.271Z,19.81
2018-04-13T08:40:14.446Z,19.49
2018-04-13T08:41:18.599Z,19.22
2018-04-13T08:42:22.999Z,19.15
2018-04-13T08:43:27.486Z,19.25
2018-04-13T08:44:32.451Z,19.25
2018-04-13T08:45:36.999Z,19.25
2018-04-13T08:46:41.107Z,19.41
2018-04-13T08:47:45.251Z,19.45
2018-04-13T08:48:49.479Z,19.48
2018-04-13T08:49:53.723Z,19.49
2018-04-13T08:50:57.956Z,19.61
2018-04-13T08:52:02.083Z,19.36
2018-04-13T08:53:06.251Z,19.47
2018-04-13T08:54:10.455Z,19.60
2018-04-13T08:55:14.685Z,19.79
2018-04-13T08:56:19.161Z,19.96
2018-04-13T08:57:23.763Z,20.05
2018-04-13T08:58:27.896Z,19.96
2018-04-13T08:59:32.117Z,19.75
2018-04-13T09:00:36.567Z,19.64
2018-04-13T09:01:40.653Z,19.60
2018-04-13T09:02:44.740Z,19.74
2018-04-13T09:03:48.868Z,19.86
2018-04-13T09:04:53.216Z,19.80
2018-04-13T09:05:57.443Z,19.59
2018-04-13T09:07:01.565Z,19.49
2018-04-13T09:08:06.549Z,19.42
2018-04-13T09:09:10.782Z,19.32
2018-04-13T09:10:14.924Z,19.37
2018-04-13T09:11:19.609Z,19.43
2018-04-13T09:12:23.806Z,19.30
2018-04-13T09:13:28.732Z,19.08
2018-04-13T09:14:40.684Z,19.20
2018-04-13T09:15:45.173Z,19.34
2018-04-13T09:16:49.413Z,19.24
2018-04-13T09:17:53.511Z,19.25
2018-04-13T09:18:58.066Z,19.23
2018-04-13T09:20:02.191Z,19.28
2018-04-13T09:21:06.397Z,19.37
2018-04-13T09:22:10.619Z,19.36
2018-04-13T09:23:14.829Z,19.17
2018-04-13T09:24:18.979Z,19.00
2018-04-13T09:25:23.473Z,18.81
2018-04-13T09:26:27.716Z,18.84
2018-04-13T09:27:31.953Z,18.87
2018-04-13T09:28:36.093Z,19.09
2018-04-13T09:29:40.777Z,19.14
2018-04-13T09:30:45.206Z,19.29
2018-04-13T09:31:49.704Z,19.42
2018-04-13T09:32:53.826Z,19.22
2018-04-13T09:33:58.355Z,19.26
2018-04-13T09:35:02.788Z,19.35
2018-04-13T09:36:07.330Z,19.45
2018-04-13T09:37:11.634Z,19.60
2018-04-13T09:38:15.766Z,19.62
2018-04-13T09:39:19.895Z,19.52
2018-04-13T09:40:24.057Z,19.36
2018-04-13T09:41:28.290Z,19.36
2018-04-13T09:42:32.433Z,19.29
2018-04-13T09:43:36.613Z,19.39
2018-04-13T09:44:42.075Z,19.26
2018-04-13T09:45:46.545Z,19.00
2018-04-13T09:46:50.673Z,19.06
2018-04-13T09:47:54.819Z,19.13
2018-04-13T09:48:59.063Z,19.11
2018-04-13T09:50:03.648Z,19.05
2018-04-13T09:51:07.776Z,19.14
2018-04-13T09:52:11.887Z,18.85
2018-04-13T09:53:16.039Z,18.90
2018-04-13T09:54:20.234Z,19.10
2018-04-13T09:55:24.358Z,19.41
2018-04-13T09:56:28.585Z,19.60
2018-04-13T09:57:32.817Z,19.76
2018-04-13T09:58:37.011Z,19.85
2018-04-13T09:59:42.124Z,19.96
2018-04-13T10:00:50.447Z,19.89
2018-04-13T10:01:54.727Z,19.82
2018-04-13T10:03:02.977Z,19.77
2018-04-13T10:04:11.114Z,19.65
2018-04-13T10:05:17.699Z,19.42
2018-04-13T10:06:22.301Z,19.27
2018-04-13T10:07:26.467Z,19.23
2018-04-13T10:08:30.736Z,19.11
2018-04-13T10:09:34.867Z,19.11
2018-04-13T10:10:38.993Z,18.84
2018-04-13T10:11:43.204Z,18.76
2018-04-13T10:12:47.696Z,18.59
2018-04-13T10:13:51.865Z,18.49
2018-04-13T10:14:56.149Z,18.57
2018-04-13T10:16:01.359Z,18.73
2018-04-13T10:17:05.602Z,18.91
2018-04-13T10:18:09.833Z,18.98
2018-04-13T10:19:14.355Z,18.89
2018-04-13T10:20:18.533Z,18.88
2018-04-13T10:21:22.725Z,18.90
2018-04-13T10:22:26.945Z,18.84
2018-04-13T10:23:31.077Z,18.53
2018-04-13T10:24:35.389Z,18.37
2018-04-13T10:25:39.875Z,18.27
2018-04-13T10:26:44.137Z,17.97
2018-04-13T10:27:48.323Z,17.87
2018-04-13T10:28:52.551Z,17.98
2018-04-13T10:29:56.730Z,18.12
2018-04-13T10:31:01.310Z,18.30
2018-04-13T10:32:05.446Z,18.33
2018-04-13T10:33:09.623Z,18.32
2018-04-13T10:34:13.754Z,18.31
2018-04-13T10:35:17.979Z,18.45
2018-04-13T10:36:22.217Z,18.58
2018-04-13T10:37:26.485Z,18.63
2018-04-13T10:38:30.615Z,18.69
2018-04-13T10:39:34.909Z,18.86
2018-04-13T10:40:39.081Z,18.98
2018-04-13T10:41:43.191Z,19.00
2018-04-13T10:42:47.869Z,19.02
2018-04-13T10:43:52.002Z,19.11
2018-04-13T10:44:57.025Z,19.15
2018-04-13T10:46:01.159Z,19.16
2018-04-13T10:47:05.458Z,19.06
2018-04-13T10:48:09.656Z,19.02
2018-04-13T10:49:13.799Z,19.07
2018-04-13T10:50:17.903Z,19.32
2018-04-13T10:51:22.014Z,19.48
2018-04-13T10:52:26.488Z,19.47
2018-04-13T10:53:30.605Z,19.57
2018-04-13T10:54:34.829Z,19.56
2018-04-13T10:55:39.057Z,19.67
2018-04-13T10:56:43.224Z,19.76
2018-04-13T10:57:47.679Z,19.60
2018-04-13T10:58:51.985Z,19.47
2018-04-13T10:59:56.179Z,19.40
2018-04-13T11:01:00.616Z,19.10
2018-04-13T11:02:04.998Z,19.04
2018-04-13T11:03:09.298Z,18.93
2018-04-13T11:04:13.591Z,19.02
2018-04-13T11:05:18.070Z,19.05
2018-04-13T11:06:22.351Z,19.15
2018-04-13T11:07:26.500Z,19.29
2018-04-13T11:08:30.606Z,19.33
2018-04-13T11:09:34.746Z,19.31
2018-04-13T11:10:39.178Z,19.16
2018-04-13T11:11:43.344Z,19.08
2018-04-13T11:12:47.472Z,19.06
2018-04-13T11:13:52.556Z,19.09
2018-04-13T11:14:56.706Z,19.17
2018-04-13T11:16:02.723Z,19.26
2018-04-13T11:17:07.868Z,19.42
2018-04-13T11:18:12.140Z,19.52
2018-04-13T11:19:16.261Z,19.46
2018-04-13T11:20:20.496Z,19.37
2018-04-13T11:21:24.607Z,19.43
2018-04-13T11:22:28.775Z,19.47
2018-04-13T11:23:32.995Z,19.40
2018-04-13T11:24:37.292Z,19.31
2018-04-13T11:25:41.571Z,19.33
2018-04-13T11:26:45.722Z,19.41
2018-04-13T11:27:49.844Z,19.48
2018-04-13T11:28:54.041Z,19.35
2018-04-13T11:29:59.449Z,19.33
2018-04-13T11:31:03.763Z,19.31
2018-04-13T11:32:07.979Z,19.16
2018-04-13T11:33:12.182Z,19.10
2018-04-13T11:34:16.334Z,18.92
2018-04-13T11:35:20.564Z,18.84
2018-04-13T11:36:24.809Z,18.61
2018-04-13T11:37:29.320Z,18.44
2018-04-13T11:38:33.567Z,18.37
2018-04-13T11:39:37.737Z,18.34
2018-04-13T11:40:41.972Z,18.18
2018-04-13T11:41:46.149Z,17.73
2018-04-13T11:42:50.394Z,17.55
2018-04-13T11:43:55.037Z,17.38
2018-04-13T11:44:59.169Z,17.15
2018-04-13T11:46:03.427Z,17.11
2018-04-13T11:47:08.245Z,17.10
2018-04-13T11:48:13.039Z,16.91
2018-04-13T11:49:17.375Z,16.83
2018-04-13T11:50:21.604Z,16.64
2018-04-13T11:51:25.815Z,16.44
2018-04-13T11:52:30.248Z,16.15
2018-04-13T11:53:34.399Z,15.80
2018-04-13T11:54:38.643Z,15.62
2018-04-13T11:55:42.949Z,15.61
2018-04-13T11:56:47.105Z,15.51
2018-04-13T11:57:51.933Z,15.38
2018-04-13T11:58:56.449Z,15.34
2018-04-13T12:00:00.555Z,15.48
2018-04-13T12:01:04.917Z,15.80
2018-04-13T12:02:09.248Z,16.01
2018-04-13T12:03:13.405Z,16.28
2018-04-13T12:04:17.569Z,16.35
2018-04-13T12:05:22.059Z,16.31
2018-04-13T12:06:26.971Z,16.31
2018-04-13T12:07:31.117Z,16.28
2018-04-13T12:08:35.372Z,16.35
2018-04-13T12:09:39.734Z,16.42
2018-04-13T12:10:43.997Z,16.29
2018-04-13T12:11:48.189Z,16.23
2018-04-13T12:12:53.157Z,16.33
2018-04-13T12:13:57.402Z,16.35
2018-04-13T12:15:04.269Z,16.18
2018-04-13T12:16:08.606Z,15.94
2018-04-13T12:17:13.091Z,15.98
2018-04-13T12:18:17.628Z,16.14
2018-04-13T12:19:21.788Z,16.25
2018-04-13T12:20:26.046Z,16.27
2018-04-13T12:21:30.288Z,16.29
2018-04-13T12:22:34.454Z,16.30
2018-04-13T12:23:39.080Z,16.25
2018-04-13T12:24:43.420Z,16.13
2018-04-13T12:25:47.703Z,16.08
2018-04-13T12:26:52.384Z,16.04
2018-04-13T12:27:57.492Z,15.98
2018-04-13T12:29:01.722Z,15.97
2018-04-13T12:30:07.390Z,16.01
2018-04-13T12:31:11.997Z,16.03
2018-04-13T12:32:17.086Z,16.04
2018-04-13T12:33:21.403Z,15.99
2018-04-13T12:34:25.654Z,16.06
2018-04-13T12:35:29.840Z,16.12
2018-04-13T12:36:34.078Z,16.15
2018-04-13T12:37:38.333Z,16.00
2018-04-13T12:38:42.696Z,15.96
2018-04-13T12:39:46.911Z,15.87
2018-04-13T12:40:52.778Z,15.80
2018-04-13T12:41:57.344Z,15.75
2018-04-13T12:43:01.499Z,15.62
2018-04-13T12:44:05.736Z,15.61
2018-04-13T12:45:10.138Z,15.59
2018-04-13T12:46:14.757Z,15.58
2018-04-13T12:47:19.051Z,15.61
2018-04-13T12:48:23.237Z,15.72
2018-04-13T12:49:27.472Z,15.71
2018-04-13T12:50:31.736Z,15.66
2018-04-13T12:51:35.979Z,15.71
2018-04-13T12:52:40.187Z,15.67
2018-04-13T12:53:44.519Z,15.67
2018-04-13T12:54:49.132Z,15.68
2018-04-13T12:55:53.270Z,15.63
2018-04-13T12:56:57.635Z,15.56
2018-04-13T12:58:01.798Z,15.54
2018-04-13T12:59:06.244Z,15.54
2018-04-13T13:00:13.368Z,15.68
2018-04-13T13:01:17.529Z,15.56
2018-04-13T13:02:21.667Z,15.34
2018-04-13T13:03:25.793Z,15.11
2018-04-13T13:04:30.093Z,15.04
2018-04-13T13:05:34.246Z,15.03
2018-04-13T13:06:38.467Z,15.17
2018-04-13T13:07:42.661Z,15.29
2018-04-13T13:08:46.853Z,15.43
2018-04-13T13:09:51.250Z,15.54
2018-04-13T13:10:55.796Z,15.73
2018-04-13T13:12:00.517Z,15.81
2018-04-13T13:13:05.194Z,15.70
2018-04-13T13:14:09.331Z,15.74
2018-04-13T13:15:15.619Z,15.75
2018-04-13T13:16:19.746Z,15.68
2018-04-13T13:17:23.897Z,15.56
2018-04-13T13:18:28.166Z,15.46
2018-04-13T13:19:32.640Z,15.51
2018-04-13T13:20:36.877Z,15.48
2018-04-13T13:21:41.212Z,15.54
2018-04-13T13:22:45.743Z,15.54
2018-04-13T13:23:50.011Z,15.50
2018-04-13T13:24:54.237Z,15.56
2018-04-13T13:25:58.364Z,15.54
2018-04-13T13:27:04.000Z,15.57
2018-04-13T13:28:08.196Z,15.59
2018-04-13T13:29:13.617Z,15.60
2018-04-13T13:30:18.179Z,15.66
2018-04-13T13:31:22.307Z,15.60
2018-04-13T13:32:26.461Z,15.58
2018-04-13T13:33:30.747Z,15.54
2018-04-13T13:34:35.357Z,15.46
2018-04-13T13:35:39.529Z,15.42
2018-04-13T13:36:43.641Z,15.43
2018-04-13T13:37:47.966Z,15.54
2018-04-13T13:38:52.328Z,15.55
2018-04-13T13:39:56.463Z,15.47
2018-04-13T13:41:01.689Z,15.47
2018-04-13T13:42:06.679Z,15.47
2018-04-13T13:43:11.530Z,15.35
2018-04-13T13:44:15.703Z,15.12
2018-04-13T13:45:20.121Z,15.14
2018-04-13T13:46:24.395Z,15.20
2018-04-13T13:47:29.382Z,15.39
2018-04-13T13:48:33.585Z,15.49
2018-04-13T13:49:37.794Z,15.47
2018-04-13T13:50:42.025Z,15.59
2018-04-13T13:51:46.167Z,15.80
2018-04-13T13:52:50.327Z,15.98